Orlando, FL

4:55 PM EST on January 21, 2017 (GMT -0500)
WFTV, Channel 9 | | Change Station
Active Advisory: Small Craft Advisory

Elev 92 ft 28.54 °N, 81.37 °W | Updated 16 seconds ago

Partly Cloudy
Partly Cloudy
81.3 °F
Feels Like 82 °F
N
1.2
Wind Variable Wind from WSW
Gusts 10.0 mph

Today
High -- | Low -- °F
--% Chance of Precip.
Yesterday
High -- | Low -- °F
Precip. -- in
Pressure 29.81 in
Visibility 10.0 miles
Clouds Few 4000 ft
Heat Index 82 °F
Dew Point 60 °F
Humidity 48%
Rainfall 0.00 in
Snow Depth Not available.
7:17 AM 5:56 PM
Waning Crescent, 32% visible
METAR KORL 212053Z 21011KT 10SM FEW040 28/15 A2980 RMK AO2 SLP094 T02780150 56030
Pressure 29.81 in
Visibility 10.0 miles
Clouds Few 4000 ft
Heat Index 82 °F
Dew Point 60 °F
Humidity 48%
Rainfall 0.00 in
Snow Depth Not available.
7:17 AM 5:56 PM
Waning Crescent, 32% visible
METAR KORL 212053Z 21011KT 10SM FEW040 28/15 A2980 RMK AO2 SLP094 T02780150 56030

Get Your Daily Forecast Email!

Thanks for signing up!

Be on the lookout for a verification email in your inbox.

You'll start receiving the daily forecast at 8 AM.

×

10-Day Weather Forecast

Almanac

Astronomy

Jan. 21, 2017 Rise Set
Actual Time
Civil Twilight
Nautical Twilight
Astronomical Twilight
Moon
Length of Visible Light
Length of Day
Tomorrow will be .
, % of the Moon is Illuminated

Today's Extremes

State Highs State Lows

Community

WunderPhotos

Upload Photos

1,962,540 photos uploaded!

WunderBlog® & News

Nearby

Air Quality

  Air Quality AQ Index Pollutant
Not available.

Snow Depth

Station Depth Elevation

Earthquake Activity

City Distance Mag. Time & Date
Minimum magnitude displayed is 2.5.

Coastal Water Temperatures

Place Temperature

Stations

Nearby Weather Stations

Station Location Temp. Windchill Dew Point Humidity Wind Precip. Elev Updated Type
                   

Watches & Warnings

Small Craft Advisory
Issued: 3:05 PM EST Jan. 21, 2017 – National Weather Service

... Small Craft Advisory remains in effect from 4 am Sunday to
9 am EST Tuesday...

* winds... south to southwest 20 knots early Sunday will increase
to near 25 knots Sunday night and Monday from the west. Gusts to
30 to 35 knots possible.

* Waves/seas... seas building to 6 to 8 feet around 20 miles
offshore. Sunday night through Monday night.

Precautionary/preparedness actions...

A Small Craft Advisory means that wind speeds of 20 to 33 knots
are expected to produce hazardous wave conditions to small craft.
Inexperienced mariners... especially those operating smaller
vessels should avoid navigating in these conditions.



Ulrich